createdAt,value
2022-10-23T00:03:12.202Z,145.30719
2022-10-23T00:08:14.132Z,151.40741
2022-10-23T00:13:15.895Z,140.80511
2022-10-23T00:18:17.666Z,142.07074
2022-10-23T00:23:19.728Z,132.3792
2022-10-23T00:28:21.187Z,128.98498
2022-10-23T00:33:23.001Z,131.23404
2022-10-23T00:38:24.953Z,117.03371
2022-10-23T00:43:26.460Z,120.5043
2022-10-23T00:48:28.068Z,118.50425
2022-10-23T00:53:30.135Z,127.8806
2022-10-23T00:58:31.645Z,132.95706
2022-10-23T01:03:33.197Z,135.90031
2022-10-23T01:08:34.772Z,136.5
2022-10-23T01:13:36.714Z,128.98498
2022-10-23T01:18:38.153Z,131.23404
2022-10-23T01:23:39.867Z,124.64516
2022-10-23T01:28:41.297Z,120.5043
2022-10-23T01:33:42.789Z,119
2022-10-23T01:38:44.575Z,112.76712
2022-10-23T01:43:46.331Z,121.52161
2022-10-23T01:48:48.201Z,111.84741
2022-10-23T01:53:50.249Z,108.26667
2022-10-23T01:58:52.027Z,108.70588
2022-10-23T02:03:54.074Z,101.54476
2022-10-23T02:08:55.919Z,102.35476
2022-10-23T02:13:57.854Z,99.16373
2022-10-23T02:18:59.589Z,97.61596
2022-10-23T02:24:01.790Z,98
2022-10-23T02:29:03.523Z,103.17313
2022-10-23T02:34:05.641Z,106.53298
2022-10-23T02:39:07.487Z,108.70588
2022-10-23T02:44:09.290Z,106.10526
2022-10-23T02:49:11.109Z,104.83551
2022-10-23T02:54:13.179Z,104
2022-10-23T02:59:15.079Z,102.76289
2022-10-23T03:04:16.563Z,106.53298
2022-10-23T03:09:18.495Z,102.76289
2022-10-23T03:14:20.267Z,103.58549
2022-10-23T03:19:22.270Z,102.76289
2022-10-23T03:24:24.405Z,103.17313
2022-10-23T03:29:26.184Z,99.94937
2022-10-23T03:34:28.000Z,97.61596
2022-10-23T03:39:29.699Z,98.77387
2022-10-23T03:44:31.630Z,97.61596
2022-10-23T03:49:33.518Z,94.61125
2022-10-23T03:54:35.622Z,100.34518
2022-10-23T03:59:37.382Z,99.94937
2022-10-23T04:04:38.876Z,100.34518
2022-10-23T04:09:40.404Z,102.35476
2022-10-23T04:14:42.042Z,105.67979
2022-10-23T04:19:43.552Z,105.25654
2022-10-23T04:24:45.433Z,108.26667
2022-10-23T04:29:46.904Z,104.41667
2022-10-23T04:34:48.410Z,104.83551
2022-10-23T04:39:50.035Z,106.96296
2022-10-23T04:44:51.531Z,107.82979
2022-10-23T04:49:52.997Z,109.14745
2022-10-23T04:54:54.997Z,112.76712
2022-10-23T04:59:56.733Z,117.52113
2022-10-23T05:04:58.572Z,128.98498
2022-10-23T05:10:00.361Z,132.95706
2022-10-23T05:15:02.071Z,144
2022-10-23T05:20:03.862Z,144.65147
2022-10-23T05:25:05.886Z,161.66784
2022-10-23T05:30:07.590Z,178.22053
2022-10-23T05:35:09.260Z,145.96721
2022-10-23T05:40:11.052Z,154.9589
2022-10-23T05:45:12.888Z,159.38462
2022-10-23T05:50:14.674Z,145.30719
2022-10-23T05:55:16.885Z,177.33333
2022-10-23T06:00:18.858Z,171.30627
2022-10-23T06:05:20.741Z,153.52381
2022-10-23T06:10:22.707Z,146.63158
2022-10-23T06:15:24.578Z,157.14879
2022-10-23T06:20:28.014Z,181.83784
2022-10-23T06:25:31.098Z,160.90141
2022-10-23T06:30:33.294Z,185.56863
2022-10-23T06:35:35.217Z,192.3871
2022-10-23T06:40:37.070Z,180.92308
2022-10-23T06:45:38.885Z,168.81752
2022-10-23T06:50:40.404Z,206.12766
2022-10-23T06:55:42.141Z,227.87097
2022-10-23T07:00:43.686Z,202.82353
2022-10-23T07:05:45.274Z,217.77778
2022-10-23T07:10:47.058Z,197.49794
2022-10-23T07:15:48.609Z,247.44828
2022-10-23T07:20:50.101Z,240.15385
2022-10-23T07:25:52.015Z,237.33333
2022-10-23T07:30:53.786Z,235.94313
2022-10-23T07:35:55.746Z,225.27854
2022-10-23T07:40:57.531Z,276.97297
2022-10-23T07:45:59.278Z,273.41176
2022-10-23T07:51:01.056Z,248.9505
2022-10-23T07:56:03.422Z,259.89744
2022-10-23T08:01:05.304Z,298.02299
2022-10-23T08:06:07.215Z,310.66667
2022-10-23T08:11:08.894Z,302.13953
2022-10-23T08:16:10.879Z,237.33333
2022-10-23T08:21:12.539Z,271.65957
2022-10-23T08:26:14.575Z,312.86228
2022-10-23T08:31:16.200Z,344
2022-10-23T08:36:17.768Z,380.87943
2022-10-23T08:41:19.268Z,380.87943
2022-10-23T08:46:20.742Z,457.33333
2022-10-23T08:51:22.533Z,461.64706
2022-10-23T08:56:24.295Z,425.25
2022-10-23T09:01:25.923Z,374.76923
2022-10-23T09:06:27.469Z,425.25
2022-10-23T09:11:29.039Z,440.77419
2022-10-23T09:16:30.518Z,432.88889
2022-10-23T09:21:31.999Z,363.04762
2022-10-23T09:26:33.738Z,421.51938
2022-10-23T09:31:35.248Z,374.76923
2022-10-23T09:36:36.746Z,384
2022-10-23T09:41:38.393Z,387.16547
2022-10-23T09:46:39.981Z,368.82759
2022-10-23T09:51:41.595Z,421.51938
2022-10-23T09:56:43.305Z,429.03937
2022-10-23T10:01:44.853Z,396.94118
2022-10-23T10:06:46.472Z,365.91781
2022-10-23T10:11:48.016Z,387.16547
2022-10-23T10:16:49.586Z,444.81301
2022-10-23T10:21:51.364Z,448.91803
2022-10-23T10:26:53.212Z,470.49573
2022-10-23T10:31:54.719Z,417.84615
2022-10-23T10:36:56.262Z,475.03448
2022-10-23T10:41:57.762Z,448.91803
2022-10-23T10:46:59.309Z,374.76923
2022-10-23T10:52:00.800Z,354.66667
2022-10-23T10:57:02.560Z,371.77778
2022-10-23T11:02:04.237Z,387.16547
2022-10-23T11:07:05.940Z,333.87342
2022-10-23T11:12:07.410Z,349.26316
2022-10-23T11:17:09.006Z,400.2963
2022-10-23T11:22:10.507Z,360.21622
2022-10-23T11:27:12.323Z,396.94118
2022-10-23T11:32:13.807Z,374.76923
2022-10-23T11:37:15.336Z,429.03937
2022-10-23T11:42:16.832Z,380.87943
2022-10-23T11:47:18.296Z,346.61438
2022-10-23T11:52:19.782Z,374.76923
2022-10-23T11:57:21.732Z,444.81301
2022-10-23T12:02:23.341Z,417.84615
2022-10-23T12:07:25.261Z,346.61438
2022-10-23T12:12:27.183Z,368.82759
2022-10-23T12:17:28.607Z,396.94118
2022-10-23T12:22:30.507Z,360.21622
2022-10-23T12:27:32.464Z,384
2022-10-23T12:32:34.269Z,410.66667
2022-10-23T12:37:35.930Z,384
2022-10-23T12:42:37.546Z,310.66667
2022-10-23T12:52:41.111Z,317.33333
2022-10-23T12:57:43.372Z,349.26316
2022-10-23T13:02:45.129Z,280.61202
2022-10-23T13:07:47.208Z,290.06742
2022-10-23T13:12:48.944Z,284.33149
2022-10-23T13:17:50.809Z,229.18519
2022-10-23T13:22:55.263Z,172.99628
2022-10-23T13:27:59.954Z,135.30435
2022-10-23T13:33:01.811Z,146.63158
2022-10-23T13:38:03.664Z,140.80511
2022-10-23T13:43:05.468Z,145.30719
2022-10-23T13:48:07.336Z,129.54217
2022-10-23T13:53:09.147Z,168
2022-10-23T13:58:11.208Z,186.51969
2022-10-23T14:03:12.979Z,193.39271
2022-10-23T14:08:14.801Z,186.51969
2022-10-23T14:13:17.022Z,132.3792
2022-10-23T14:18:18.859Z,221.47748
2022-10-23T14:23:20.725Z,198.54545
2022-10-23T14:28:23.023Z,208.37768
2022-10-23T14:33:25.074Z,241.58454
2022-10-23T14:38:26.969Z,234.56604
2022-10-23T14:43:28.887Z,290.06742
2022-10-23T14:48:30.788Z,346.61438
2022-10-23T14:53:32.623Z,300.06936
2022-10-23T14:58:34.763Z,390.37681
2022-10-23T15:03:36.599Z,410.66667
2022-10-23T15:08:38.424Z,519.70093
2022-10-23T15:13:40.156Z,572.57143
2022-10-23T15:18:41.977Z,592.42105
2022-10-23T15:23:43.518Z,566.22222
2022-10-23T15:28:45.335Z,636.13483
2022-10-23T15:33:47.098Z,686.16867
2022-10-23T15:38:48.815Z,754.52632
2022-10-23T15:48:51.986Z,849.88235
2022-10-23T15:53:53.445Z,765.33333
2022-10-23T15:58:55.404Z,877.33333
2022-10-23T16:03:56.890Z,733.74359
2022-10-23T16:08:58.399Z,849.88235
2022-10-23T16:14:00.100Z,824
2022-10-23T16:19:01.578Z,776.43243
2022-10-23T16:24:03.381Z,877.33333
2022-10-23T16:29:05.609Z,921.77778
2022-10-23T16:34:11.663Z,921.77778
2022-10-23T16:39:13.589Z,953.83607
2022-10-23T16:44:15.365Z,849.88235
2022-10-23T16:49:17.317Z,836.75362
2022-10-23T16:54:19.076Z,836.75362
2022-10-23T16:59:21.164Z,799.55556
2022-10-23T17:04:23.087Z,877.33333
2022-10-23T17:09:24.908Z,824
2022-10-23T17:14:26.755Z,849.88235
2022-10-23T17:19:44.990Z,799.55556
2022-10-23T17:24:50.167Z,836.75362
2022-10-23T17:29:55.668Z,754.52632
2022-10-23T17:34:57.386Z,723.74684
2022-10-23T17:40:01.169Z,660.27907
2022-10-23T17:45:03.736Z,660.27907
2022-10-23T17:50:06.084Z,660.27907
2022-10-23T17:55:07.906Z,628.44444
2022-10-23T18:00:10.174Z,560
2022-10-23T18:05:12.056Z,448.91803
2022-10-23T18:10:14.008Z,425.25
2022-10-23T18:15:16.048Z,407.15789
2022-10-23T18:20:17.845Z,414.22901
2022-10-23T18:25:19.636Z,432.88889
2022-10-23T18:30:22.152Z,519.70093
2022-10-23T18:35:24.127Z,461.64706
2022-10-23T18:40:27.927Z,525.13208
2022-10-23T18:45:30.414Z,457.33333
2022-10-23T18:50:32.199Z,470.49573
2022-10-23T19:00:36.251Z,484.35088
2022-10-23T19:05:38.084Z,566.22222
2022-10-23T19:10:40.068Z,530.66667
2022-10-23T19:15:41.945Z,572.57143
2022-10-23T19:20:43.652Z,466.0339
2022-10-23T19:25:45.234Z,417.84615
2022-10-23T19:30:47.001Z,417.84615
2022-10-23T19:35:48.544Z,380.87943
2022-10-23T19:40:50.343Z,380.87943
2022-10-23T19:45:52.255Z,414.22901
2022-10-23T19:50:53.816Z,377.80282
2022-10-23T19:55:55.460Z,371.77778
2022-10-23T20:00:57.869Z,384
2022-10-23T20:05:59.967Z,336.35669
2022-10-23T20:11:02.030Z,360.21622
2022-10-23T20:16:03.957Z,368.82759
2022-10-23T20:21:05.751Z,393.63504
2022-10-23T20:26:07.793Z,374.76923
2022-10-23T20:31:09.823Z,349.26316
2022-10-23T20:36:11.559Z,344
2022-10-23T20:41:13.215Z,326.6087
2022-10-23T20:46:15.103Z,329
2022-10-23T20:51:16.979Z,310.66667
2022-10-23T20:56:18.851Z,304.23392
2022-10-23T21:01:21.274Z,290.06742
2022-10-23T21:06:23.196Z,292.0226
2022-10-23T21:11:24.942Z,296
2022-10-23T21:16:28.630Z,312.86228
2022-10-23T21:21:30.533Z,253.54774
2022-10-23T21:26:32.421Z,256.69036
2022-10-23T21:31:34.524Z,338.87179
2022-10-23T21:36:48.277Z,319.60976
2022-10-23T21:41:56.076Z,312.86228
2022-10-23T21:46:58.017Z,298.02299
2022-10-23T21:51:59.813Z,284.33149
2022-10-23T21:57:01.343Z,248.9505
2022-10-23T22:02:03.481Z,264.83333
2022-10-23T22:07:05.439Z,284.33149
2022-10-23T22:12:07.514Z,261.52577
2022-10-23T22:17:09.515Z,276.97297
2022-10-23T22:22:10.991Z,290.06742
2022-10-23T22:27:12.747Z,290.06742
2022-10-23T22:32:14.729Z,310.66667
2022-10-23T22:37:18.964Z,310.66667
2022-10-23T22:42:21.457Z,286.22222
2022-10-23T22:52:33.950Z,278.78261
2022-10-23T22:57:35.789Z,275.1828
2022-10-23T23:02:37.944Z,248.9505
2022-10-23T23:07:40.124Z,290.06742
2022-10-23T23:12:42.395Z,273.41176
2022-10-23T23:17:44.855Z,256.69036
2022-10-23T23:22:47.472Z,225.27854
2022-10-23T23:27:49.306Z,211.82609
2022-10-23T23:32:50.829Z,205.01695
2022-10-23T23:40:57.846Z,206.12766
2022-10-23T23:45:59.781Z,190.4
2022-10-23T23:51:01.931Z,184.625
2022-10-23T23:56:03.957Z,173.85075
